sensor_id;sensor_type;location;lat;lon;timestamp;temperature;humidity
28608;DHT22;15802;45.654;13.804;2023-07-02T00:01:31;20.20;99.90
28608;DHT22;15802;45.654;13.804;2023-07-02T00:03:57;20.20;99.90
28608;DHT22;15802;45.654;13.804;2023-07-02T00:06:22;20.20;99.90
28608;DHT22;15802;45.654;13.804;2023-07-02T00:08:48;20.20;99.90
28608;DHT22;15802;45.654;13.804;2023-07-02T00:11:15;20.10;99.90
28608;DHT22;15802;45.654;13.804;2023-07-02T00:13:40;20.10;99.90
28608;DHT22;15802;45.654;13.804;2023-07-02T00:16:06;20.10;99.90
28608;DHT22;15802;45.654;13.804;2023-07-02T00:18:32;20.10;99.90
28608;DHT22;15802;45.654;13.804;2023-07-02T00:21:00;20.20;99.90
28608;DHT22;15802;45.654;13.804;2023-07-02T00:23:28;20.20;99.90
28608;DHT22;15802;45.654;13.804;2023-07-02T00:25:54;20.10;99.90
28608;DHT22;15802;45.654;13.804;2023-07-02T00:28:19;20.00;99.90
28608;DHT22;15802;45.654;13.804;2023-07-02T00:30:45;20.00;99.90
28608;DHT22;15802;45.654;13.804;2023-07-02T00:33:10;20.00;99.90
28608;DHT22;15802;45.654;13.804;2023-07-02T00:35:36;20.00;99.90
28608;DHT22;15802;45.654;13.804;2023-07-02T00:38:02;20.00;99.90
28608;DHT22;15802;45.654;13.804;2023-07-02T00:40:28;20.00;99.90
28608;DHT22;15802;45.654;13.804;2023-07-02T00:42:54;20.00;99.90
28608;DHT22;15802;45.654;13.804;2023-07-02T00:45:19;20.00;99.90
28608;DHT22;15802;45.654;13.804;2023-07-02T00:47:45;20.00;99.90
28608;DHT22;15802;45.654;13.804;2023-07-02T00:50:11;20.00;99.90
28608;DHT22;15802;45.654;13.804;2023-07-02T00:52:37;19.90;99.90
28608;DHT22;15802;45.654;13.804;2023-07-02T00:55:03;19.90;99.90
28608;DHT22;15802;45.654;13.804;2023-07-02T00:57:29;19.90;99.90
28608;DHT22;15802;45.654;13.804;2023-07-02T00:59:56;19.90;99.90
28608;DHT22;15802;45.654;13.804;2023-07-02T01:02:22;19.90;99.90
28608;DHT22;15802;45.654;13.804;2023-07-02T01:04:51;19.80;99.90
28608;DHT22;15802;45.654;13.804;2023-07-02T01:07:23;19.80;99.90
28608;DHT22;15802;45.654;13.804;2023-07-02T01:09:48;19.80;99.90
28608;DHT22;15802;45.654;13.804;2023-07-02T01:12:14;19.80;99.90
28608;DHT22;15802;45.654;13.804;2023-07-02T01:14:43;19.70;99.90
28608;DHT22;15802;45.654;13.804;2023-07-02T01:17:10;19.70;99.90
28608;DHT22;15802;45.654;13.804;2023-07-02T01:19:52;19.60;99.90
28608;DHT22;15802;45.654;13.804;2023-07-02T01:22:19;19.60;99.90
28608;DHT22;15802;45.654;13.804;2023-07-02T01:24:45;19.60;99.90
28608;DHT22;15802;45.654;13.804;2023-07-02T01:27:13;19.60;99.90
28608;DHT22;15802;45.654;13.804;2023-07-02T01:29:40;19.60;99.90
28608;DHT22;15802;45.654;13.804;2023-07-02T01:32:05;19.60;99.90
28608;DHT22;15802;45.654;13.804;2023-07-02T01:34:31;19.60;99.90
28608;DHT22;15802;45.654;13.804;2023-07-02T01:36:57;19.60;99.90
28608;DHT22;15802;45.654;13.804;2023-07-02T01:39:23;19.60;99.90
28608;DHT22;15802;45.654;13.804;2023-07-02T01:41:50;19.60;99.90
28608;DHT22;15802;45.654;13.804;2023-07-02T01:44:16;19.60;99.90
28608;DHT22;15802;45.654;13.804;2023-07-02T01:46:42;19.60;99.90
28608;DHT22;15802;45.654;13.804;2023-07-02T01:49:08;19.60;99.90
28608;DHT22;15802;45.654;13.804;2023-07-02T01:51:34;19.60;99.90
28608;DHT22;15802;45.654;13.804;2023-07-02T01:54:00;19.60;99.90
28608;DHT22;15802;45.654;13.804;2023-07-02T01:56:26;19.60;99.90
28608;DHT22;15802;45.654;13.804;2023-07-02T01:58:52;19.50;99.90
28608;DHT22;15802;45.654;13.804;2023-07-02T02:01:18;19.50;99.90
28608;DHT22;15802;45.654;13.804;2023-07-02T02:03:44;19.50;99.90
28608;DHT22;15802;45.654;13.804;2023-07-02T02:06:09;19.60;99.90
28608;DHT22;15802;45.654;13.804;2023-07-02T02:08:35;19.60;99.90
28608;DHT22;15802;45.654;13.804;2023-07-02T02:11:00;19.50;99.90
28608;DHT22;15802;45.654;13.804;2023-07-02T02:13:26;19.60;99.90
28608;DHT22;15802;45.654;13.804;2023-07-02T02:15:52;19.50;99.90
28608;DHT22;15802;45.654;13.804;2023-07-02T02:18:17;19.50;99.90
28608;DHT22;15802;45.654;13.804;2023-07-02T02:20:43;19.50;99.90
28608;DHT22;15802;45.654;13.804;2023-07-02T02:23:08;19.50;99.90
28608;DHT22;15802;45.654;13.804;2023-07-02T02:25:34;19.40;99.90
28608;DHT22;15802;45.654;13.804;2023-07-02T02:28:00;19.40;99.90
28608;DHT22;15802;45.654;13.804;2023-07-02T02:30:25;19.30;99.90
28608;DHT22;15802;45.654;13.804;2023-07-02T02:32:51;19.30;99.90
28608;DHT22;15802;45.654;13.804;2023-07-02T02:35:16;19.30;99.90
28608;DHT22;15802;45.654;13.804;2023-07-02T02:37:42;19.30;99.90
28608;DHT22;15802;45.654;13.804;2023-07-02T02:40:08;19.40;99.90
28608;DHT22;15802;45.654;13.804;2023-07-02T02:42:35;19.30;99.90
28608;DHT22;15802;45.654;13.804;2023-07-02T02:45:01;19.30;99.90
28608;DHT22;15802;45.654;13.804;2023-07-02T02:47:27;19.40;99.90
28608;DHT22;15802;45.654;13.804;2023-07-02T02:49:52;19.40;99.90
28608;DHT22;15802;45.654;13.804;2023-07-02T02:52:18;19.40;99.90
28608;DHT22;15802;45.654;13.804;2023-07-02T02:54:45;19.40;99.90
28608;DHT22;15802;45.654;13.804;2023-07-02T02:57:10;19.40;99.90
28608;DHT22;15802;45.654;13.804;2023-07-02T02:59:36;19.30;99.90
28608;DHT22;15802;45.654;13.804;2023-07-02T03:02:02;19.30;99.90
28608;DHT22;15802;45.654;13.804;2023-07-02T03:04:28;19.30;99.90
28608;DHT22;15802;45.654;13.804;2023-07-02T03:06:53;19.20;99.90
28608;DHT22;15802;45.654;13.804;2023-07-02T03:09:19;19.30;99.90
28608;DHT22;15802;45.654;13.804;2023-07-02T03:11:45;19.30;99.90
28608;DHT22;15802;45.654;13.804;2023-07-02T03:14:11;19.30;99.90
28608;DHT22;15802;45.654;13.804;2023-07-02T03:16:37;19.30;99.90
28608;DHT22;15802;45.654;13.804;2023-07-02T03:19:02;19.30;99.90
28608;DHT22;15802;45.654;13.804;2023-07-02T03:21:28;19.30;99.90
28608;DHT22;15802;45.654;13.804;2023-07-02T03:23:55;19.30;99.90
28608;DHT22;15802;45.654;13.804;2023-07-02T03:26:21;19.30;99.90
28608;DHT22;15802;45.654;13.804;2023-07-02T03:28:48;19.20;99.90
28608;DHT22;15802;45.654;13.804;2023-07-02T03:31:13;19.20;99.90
28608;DHT22;15802;45.654;13.804;2023-07-02T03:33:39;19.10;99.90
28608;DHT22;15802;45.654;13.804;2023-07-02T03:36:05;19.10;99.90
28608;DHT22;15802;45.654;13.804;2023-07-02T03:38:30;19.10;99.90
28608;DHT22;15802;45.654;13.804;2023-07-02T03:40:56;19.20;99.90
28608;DHT22;15802;45.654;13.804;2023-07-02T03:43:22;19.20;99.90
28608;DHT22;15802;45.654;13.804;2023-07-02T03:45:47;19.20;99.90
28608;DHT22;15802;45.654;13.804;2023-07-02T03:48:13;19.20;99.90
28608;DHT22;15802;45.654;13.804;2023-07-02T03:50:38;19.20;99.90
28608;DHT22;15802;45.654;13.804;2023-07-02T03:53:04;19.20;99.90
28608;DHT22;15802;45.654;13.804;2023-07-02T03:55:30;19.20;99.90
28608;DHT22;15802;45.654;13.804;2023-07-02T03:57:56;19.20;99.90
28608;DHT22;15802;45.654;13.804;2023-07-02T04:00:22;19.20;99.90
28608;DHT22;15802;45.654;13.804;2023-07-02T04:02:47;19.20;99.90
28608;DHT22;15802;45.654;13.804;2023-07-02T04:05:13;19.20;99.90
28608;DHT22;15802;45.654;13.804;2023-07-02T04:07:38;19.20;99.90
28608;DHT22;15802;45.654;13.804;2023-07-02T04:10:04;19.20;99.90
28608;DHT22;15802;45.654;13.804;2023-07-02T04:12:30;19.30;99.90
28608;DHT22;15802;45.654;13.804;2023-07-02T04:14:56;19.30;99.90
28608;DHT22;15802;45.654;13.804;2023-07-02T04:17:21;19.30;99.90
28608;DHT22;15802;45.654;13.804;2023-07-02T04:19:47;19.30;99.90
28608;DHT22;15802;45.654;13.804;2023-07-02T04:22:14;19.30;99.90
28608;DHT22;15802;45.654;13.804;2023-07-02T04:24:39;19.30;99.90
28608;DHT22;15802;45.654;13.804;2023-07-02T04:27:05;19.30;99.90
28608;DHT22;15802;45.654;13.804;2023-07-02T04:29:31;19.30;99.90
28608;DHT22;15802;45.654;13.804;2023-07-02T04:31:56;19.30;99.90
28608;DHT22;15802;45.654;13.804;2023-07-02T04:34:22;19.30;99.90
28608;DHT22;15802;45.654;13.804;2023-07-02T04:36:47;19.30;99.90
28608;DHT22;15802;45.654;13.804;2023-07-02T04:39:13;19.30;99.90
28608;DHT22;15802;45.654;13.804;2023-07-02T04:41:39;19.30;99.90
28608;DHT22;15802;45.654;13.804;2023-07-02T04:44:04;19.40;99.90
28608;DHT22;15802;45.654;13.804;2023-07-02T04:46:30;19.40;99.90
28608;DHT22;15802;45.654;13.804;2023-07-02T04:48:56;19.50;99.90
28608;DHT22;15802;45.654;13.804;2023-07-02T04:51:21;19.40;99.90
28608;DHT22;15802;45.654;13.804;2023-07-02T04:53:47;19.50;99.90
28608;DHT22;15802;45.654;13.804;2023-07-02T04:56:13;19.40;99.90
28608;DHT22;15802;45.654;13.804;2023-07-02T04:58:38;19.40;99.90
28608;DHT22;15802;45.654;13.804;2023-07-02T05:01:04;19.40;99.90
28608;DHT22;15802;45.654;13.804;2023-07-02T05:03:30;19.40;99.90
28608;DHT22;15802;45.654;13.804;2023-07-02T05:05:55;19.40;99.90
28608;DHT22;15802;45.654;13.804;2023-07-02T05:08:21;19.50;99.90
28608;DHT22;15802;45.654;13.804;2023-07-02T05:10:47;19.60;99.90
28608;DHT22;15802;45.654;13.804;2023-07-02T05:13:12;19.60;99.90
28608;DHT22;15802;45.654;13.804;2023-07-02T05:15:38;19.70;99.90
28608;DHT22;15802;45.654;13.804;2023-07-02T05:18:04;19.80;99.90
28608;DHT22;15802;45.654;13.804;2023-07-02T05:20:29;19.80;99.90
28608;DHT22;15802;45.654;13.804;2023-07-02T05:22:55;19.90;99.90
28608;DHT22;15802;45.654;13.804;2023-07-02T05:25:21;20.00;99.90
28608;DHT22;15802;45.654;13.804;2023-07-02T05:27:46;20.00;99.90
28608;DHT22;15802;45.654;13.804;2023-07-02T05:30:12;20.00;99.90
28608;DHT22;15802;45.654;13.804;2023-07-02T05:32:38;20.10;99.90
28608;DHT22;15802;45.654;13.804;2023-07-02T05:35:04;20.20;99.90
28608;DHT22;15802;45.654;13.804;2023-07-02T05:37:30;20.30;99.90
28608;DHT22;15802;45.654;13.804;2023-07-02T05:39:56;20.30;99.90
28608;DHT22;15802;45.654;13.804;2023-07-02T05:42:21;20.40;99.90
28608;DHT22;15802;45.654;13.804;2023-07-02T05:44:47;20.50;99.90
28608;DHT22;15802;45.654;13.804;2023-07-02T05:47:12;20.70;99.90
28608;DHT22;15802;45.654;13.804;2023-07-02T05:49:38;20.70;99.90
28608;DHT22;15802;45.654;13.804;2023-07-02T05:52:04;20.70;99.90
28608;DHT22;15802;45.654;13.804;2023-07-02T05:54:29;20.80;99.90
28608;DHT22;15802;45.654;13.804;2023-07-02T05:56:55;20.90;99.90
28608;DHT22;15802;45.654;13.804;2023-07-02T05:59:21;21.00;99.90
28608;DHT22;15802;45.654;13.804;2023-07-02T06:01:46;21.10;99.90
28608;DHT22;15802;45.654;13.804;2023-07-02T06:04:12;21.10;99.90
28608;DHT22;15802;45.654;13.804;2023-07-02T06:06:37;21.20;99.90
28608;DHT22;15802;45.654;13.804;2023-07-02T06:09:03;21.30;99.90
28608;DHT22;15802;45.654;13.804;2023-07-02T06:11:29;21.40;99.90
28608;DHT22;15802;45.654;13.804;2023-07-02T06:13:55;21.50;99.90
28608;DHT22;15802;45.654;13.804;2023-07-02T06:16:23;21.60;99.90
28608;DHT22;15802;45.654;13.804;2023-07-02T06:18:50;21.70;99.90
28608;DHT22;15802;45.654;13.804;2023-07-02T06:21:15;21.70;99.90
28608;DHT22;15802;45.654;13.804;2023-07-02T06:23:42;21.80;99.90
28608;DHT22;15802;45.654;13.804;2023-07-02T06:26:08;21.90;99.90
28608;DHT22;15802;45.654;13.804;2023-07-02T06:28:33;22.00;99.90
28608;DHT22;15802;45.654;13.804;2023-07-02T06:30:59;22.10;99.90
28608;DHT22;15802;45.654;13.804;2023-07-02T06:33:25;22.20;99.90
28608;DHT22;15802;45.654;13.804;2023-07-02T06:35:50;22.20;99.90
28608;DHT22;15802;45.654;13.804;2023-07-02T06:38:16;22.30;99.90
28608;DHT22;15802;45.654;13.804;2023-07-02T06:40:42;22.40;99.90
28608;DHT22;15802;45.654;13.804;2023-07-02T06:43:07;22.50;99.90
28608;DHT22;15802;45.654;13.804;2023-07-02T06:45:33;22.60;99.90
28608;DHT22;15802;45.654;13.804;2023-07-02T06:47:59;22.60;99.90
28608;DHT22;15802;45.654;13.804;2023-07-02T06:50:24;22.70;99.90
28608;DHT22;15802;45.654;13.804;2023-07-02T06:52:50;22.70;99.90
28608;DHT22;15802;45.654;13.804;2023-07-02T06:55:16;22.80;99.90
28608;DHT22;15802;45.654;13.804;2023-07-02T06:57:42;22.80;99.90
28608;DHT22;15802;45.654;13.804;2023-07-02T07:00:08;22.90;99.90
28608;DHT22;15802;45.654;13.804;2023-07-02T07:02:34;23.00;99.90
28608;DHT22;15802;45.654;13.804;2023-07-02T07:05:00;23.00;99.90
28608;DHT22;15802;45.654;13.804;2023-07-02T07:07:25;23.10;99.90
28608;DHT22;15802;45.654;13.804;2023-07-02T07:09:51;23.20;99.90
28608;DHT22;15802;45.654;13.804;2023-07-02T07:12:17;23.20;99.90
28608;DHT22;15802;45.654;13.804;2023-07-02T07:14:45;23.40;99.90
28608;DHT22;15802;45.654;13.804;2023-07-02T07:17:11;23.40;99.90
28608;DHT22;15802;45.654;13.804;2023-07-02T07:19:37;23.50;99.90
28608;DHT22;15802;45.654;13.804;2023-07-02T07:22:03;23.60;99.90
28608;DHT22;15802;45.654;13.804;2023-07-02T07:24:28;23.60;99.90
28608;DHT22;15802;45.654;13.804;2023-07-02T07:26:54;23.80;99.90
28608;DHT22;15802;45.654;13.804;2023-07-02T07:29:19;23.80;99.90
28608;DHT22;15802;45.654;13.804;2023-07-02T07:31:45;23.90;99.90
28608;DHT22;15802;45.654;13.804;2023-07-02T07:34:11;24.00;99.90
28608;DHT22;15802;45.654;13.804;2023-07-02T07:36:37;24.00;99.90
28608;DHT22;15802;45.654;13.804;2023-07-02T07:39:02;23.90;99.90
28608;DHT22;15802;45.654;13.804;2023-07-02T07:41:28;23.90;99.90
28608;DHT22;15802;45.654;13.804;2023-07-02T07:43:54;23.90;99.90
28608;DHT22;15802;45.654;13.804;2023-07-02T07:46:19;24.00;99.90
28608;DHT22;15802;45.654;13.804;2023-07-02T07:48:45;24.00;99.90
28608;DHT22;15802;45.654;13.804;2023-07-02T07:51:11;24.00;99.90
28608;DHT22;15802;45.654;13.804;2023-07-02T07:53:37;24.10;99.90
28608;DHT22;15802;45.654;13.804;2023-07-02T07:56:04;24.10;99.90
28608;DHT22;15802;45.654;13.804;2023-07-02T07:58:30;24.10;99.90
28608;DHT22;15802;45.654;13.804;2023-07-02T08:00:57;24.20;99.90
28608;DHT22;15802;45.654;13.804;2023-07-02T08:03:23;24.10;99.90
28608;DHT22;15802;45.654;13.804;2023-07-02T08:05:48;24.20;99.90
28608;DHT22;15802;45.654;13.804;2023-07-02T08:08:14;24.30;99.90
28608;DHT22;15802;45.654;13.804;2023-07-02T08:10:40;24.40;99.90
28608;DHT22;15802;45.654;13.804;2023-07-02T08:13:05;24.40;99.90
28608;DHT22;15802;45.654;13.804;2023-07-02T08:15:31;24.40;99.90
28608;DHT22;15802;45.654;13.804;2023-07-02T08:17:57;24.40;99.90
28608;DHT22;15802;45.654;13.804;2023-07-02T08:20:24;24.40;99.90
28608;DHT22;15802;45.654;13.804;2023-07-02T08:22:50;24.50;99.90
28608;DHT22;15802;45.654;13.804;2023-07-02T08:25:17;24.50;99.90
28608;DHT22;15802;45.654;13.804;2023-07-02T08:27:46;24.50;99.90
28608;DHT22;15802;45.654;13.804;2023-07-02T08:30:12;24.50;99.90
28608;DHT22;15802;45.654;13.804;2023-07-02T08:32:38;24.60;99.90
28608;DHT22;15802;45.654;13.804;2023-07-02T08:35:03;24.50;99.90
28608;DHT22;15802;45.654;13.804;2023-07-02T08:37:29;24.50;99.90
28608;DHT22;15802;45.654;13.804;2023-07-02T08:39:55;24.50;99.90
28608;DHT22;15802;45.654;13.804;2023-07-02T08:42:22;24.50;99.90
28608;DHT22;15802;45.654;13.804;2023-07-02T08:44:53;24.50;99.90
28608;DHT22;15802;45.654;13.804;2023-07-02T08:47:18;24.60;99.90
28608;DHT22;15802;45.654;13.804;2023-07-02T08:49:44;24.60;99.90
28608;DHT22;15802;45.654;13.804;2023-07-02T08:52:10;24.60;99.90
28608;DHT22;15802;45.654;13.804;2023-07-02T08:54:35;24.70;99.90
28608;DHT22;15802;45.654;13.804;2023-07-02T08:57:03;24.70;99.90
28608;DHT22;15802;45.654;13.804;2023-07-02T08:59:30;24.80;99.90
28608;DHT22;15802;45.654;13.804;2023-07-02T09:01:56;24.80;99.90
28608;DHT22;15802;45.654;13.804;2023-07-02T09:04:22;24.80;99.90
28608;DHT22;15802;45.654;13.804;2023-07-02T09:07:02;24.80;99.90
28608;DHT22;15802;45.654;13.804;2023-07-02T09:09:28;24.80;99.90
28608;DHT22;15802;45.654;13.804;2023-07-02T09:11:54;24.80;99.90
28608;DHT22;15802;45.654;13.804;2023-07-02T09:14:23;24.90;99.90
28608;DHT22;15802;45.654;13.804;2023-07-02T09:16:50;25.00;99.90
28608;DHT22;15802;45.654;13.804;2023-07-02T09:19:25;25.00;99.90
28608;DHT22;15802;45.654;13.804;2023-07-02T09:21:51;25.10;99.90
28608;DHT22;15802;45.654;13.804;2023-07-02T09:24:17;25.10;99.90
28608;DHT22;15802;45.654;13.804;2023-07-02T09:26:45;25.10;99.90
28608;DHT22;15802;45.654;13.804;2023-07-02T09:29:11;25.20;99.90
28608;DHT22;15802;45.654;13.804;2023-07-02T09:31:45;25.20;99.90
28608;DHT22;15802;45.654;13.804;2023-07-02T09:34:11;25.20;99.90
28608;DHT22;15802;45.654;13.804;2023-07-02T09:36:37;25.20;99.90
28608;DHT22;15802;45.654;13.804;2023-07-02T09:39:08;25.30;99.90
28608;DHT22;15802;45.654;13.804;2023-07-02T09:41:34;25.40;99.90
28608;DHT22;15802;45.654;13.804;2023-07-02T09:44:00;25.40;99.90
28608;DHT22;15802;45.654;13.804;2023-07-02T09:46:26;25.40;99.90
28608;DHT22;15802;45.654;13.804;2023-07-02T09:48:51;25.50;99.90
28608;DHT22;15802;45.654;13.804;2023-07-02T09:51:17;25.60;99.90
28608;DHT22;15802;45.654;13.804;2023-07-02T09:53:43;25.60;99.90
28608;DHT22;15802;45.654;13.804;2023-07-02T09:56:09;25.70;99.90
28608;DHT22;15802;45.654;13.804;2023-07-02T09:58:35;25.80;99.90
28608;DHT22;15802;45.654;13.804;2023-07-02T10:01:01;25.80;99.90
28608;DHT22;15802;45.654;13.804;2023-07-02T10:03:27;25.80;99.90
28608;DHT22;15802;45.654;13.804;2023-07-02T10:06:01;25.80;99.90
28608;DHT22;15802;45.654;13.804;2023-07-02T10:08:27;25.90;99.90
28608;DHT22;15802;45.654;13.804;2023-07-02T10:11:12;26.00;99.90
28608;DHT22;15802;45.654;13.804;2023-07-02T10:13:39;26.10;99.90
28608;DHT22;15802;45.654;13.804;2023-07-02T10:16:04;26.10;99.90
28608;DHT22;15802;45.654;13.804;2023-07-02T10:18:31;26.20;99.90
28608;DHT22;15802;45.654;13.804;2023-07-02T10:20:56;26.10;99.90
28608;DHT22;15802;45.654;13.804;2023-07-02T10:23:32;26.20;99.90
28608;DHT22;15802;45.654;13.804;2023-07-02T10:25:58;26.20;99.90
28608;DHT22;15802;45.654;13.804;2023-07-02T10:28:23;26.20;99.90
28608;DHT22;15802;45.654;13.804;2023-07-02T10:30:52;26.30;99.90
28608;DHT22;15802;45.654;13.804;2023-07-02T10:33:18;26.30;99.90
28608;DHT22;15802;45.654;13.804;2023-07-02T10:35:45;26.40;99.90
28608;DHT22;15802;45.654;13.804;2023-07-02T10:38:14;26.40;99.90
28608;DHT22;15802;45.654;13.804;2023-07-02T10:40:41;26.50;99.90
28608;DHT22;15802;45.654;13.804;2023-07-02T10:43:07;26.60;99.90
28608;DHT22;15802;45.654;13.804;2023-07-02T10:45:33;26.60;99.90
28608;DHT22;15802;45.654;13.804;2023-07-02T10:48:01;26.60;99.90
28608;DHT22;15802;45.654;13.804;2023-07-02T10:50:27;26.70;99.90
28608;DHT22;15802;45.654;13.804;2023-07-02T10:52:52;26.80;99.90
28608;DHT22;15802;45.654;13.804;2023-07-02T10:55:19;26.80;99.90
28608;DHT22;15802;45.654;13.804;2023-07-02T10:57:45;26.80;99.90
28608;DHT22;15802;45.654;13.804;2023-07-02T11:00:11;26.80;99.90
28608;DHT22;15802;45.654;13.804;2023-07-02T11:02:37;26.90;99.90
28608;DHT22;15802;45.654;13.804;2023-07-02T11:05:04;26.90;99.90
28608;DHT22;15802;45.654;13.804;2023-07-02T11:07:32;27.00;99.90
28608;DHT22;15802;45.654;13.804;2023-07-02T11:09:57;26.90;99.90
28608;DHT22;15802;45.654;13.804;2023-07-02T11:12:31;27.00;99.90
28608;DHT22;15802;45.654;13.804;2023-07-02T11:17:41;27.00;99.90
28608;DHT22;15802;45.654;13.804;2023-07-02T11:20:08;27.00;99.90
28608;DHT22;15802;45.654;13.804;2023-07-02T11:22:34;27.10;99.90
28608;DHT22;15802;45.654;13.804;2023-07-02T11:25:16;27.30;99.90
28608;DHT22;15802;45.654;13.804;2023-07-02T11:27:42;27.30;99.90
28608;DHT22;15802;45.654;13.804;2023-07-02T11:30:08;27.40;99.90
28608;DHT22;15802;45.654;13.804;2023-07-02T11:32:35;27.40;99.90
28608;DHT22;15802;45.654;13.804;2023-07-02T11:35:00;27.50;99.90
28608;DHT22;15802;45.654;13.804;2023-07-02T11:37:26;27.50;99.90
28608;DHT22;15802;45.654;13.804;2023-07-02T11:39:53;27.40;99.90
28608;DHT22;15802;45.654;13.804;2023-07-02T11:42:19;27.40;99.90
28608;DHT22;15802;45.654;13.804;2023-07-02T11:44:47;27.50;99.90
28608;DHT22;15802;45.654;13.804;2023-07-02T11:47:13;27.60;99.90
28608;DHT22;15802;45.654;13.804;2023-07-02T11:49:38;27.50;99.90
28608;DHT22;15802;45.654;13.804;2023-07-02T11:52:04;27.60;99.90
28608;DHT22;15802;45.654;13.804;2023-07-02T11:54:29;27.70;99.90
28608;DHT22;15802;45.654;13.804;2023-07-02T11:56:59;27.70;99.90
28608;DHT22;15802;45.654;13.804;2023-07-02T11:59:25;27.70;99.90
28608;DHT22;15802;45.654;13.804;2023-07-02T12:01:50;27.70;99.90
28608;DHT22;15802;45.654;13.804;2023-07-02T12:04:16;27.70;99.90
28608;DHT22;15802;45.654;13.804;2023-07-02T12:06:43;27.80;99.90
28608;DHT22;15802;45.654;13.804;2023-07-02T12:09:08;27.80;99.90
28608;DHT22;15802;45.654;13.804;2023-07-02T12:11:35;27.80;99.90
28608;DHT22;15802;45.654;13.804;2023-07-02T12:14:00;27.60;99.90
28608;DHT22;15802;45.654;13.804;2023-07-02T12:16:26;27.40;99.90
28608;DHT22;15802;45.654;13.804;2023-07-02T12:18:51;27.40;99.90
28608;DHT22;15802;45.654;13.804;2023-07-02T12:21:17;27.40;99.90
28608;DHT22;15802;45.654;13.804;2023-07-02T12:23:43;27.40;99.90
28608;DHT22;15802;45.654;13.804;2023-07-02T12:26:09;27.60;99.90
28608;DHT22;15802;45.654;13.804;2023-07-02T12:28:35;27.70;99.90
28608;DHT22;15802;45.654;13.804;2023-07-02T12:31:00;27.60;99.90
28608;DHT22;15802;45.654;13.804;2023-07-02T12:33:28;27.70;99.90
28608;DHT22;15802;45.654;13.804;2023-07-02T12:35:53;27.70;99.90
28608;DHT22;15802;45.654;13.804;2023-07-02T12:38:19;27.80;99.90
28608;DHT22;15802;45.654;13.804;2023-07-02T12:40:44;27.90;99.90
28608;DHT22;15802;45.654;13.804;2023-07-02T12:43:10;27.90;99.90
28608;DHT22;15802;45.654;13.804;2023-07-02T12:45:36;27.70;99.90
28608;DHT22;15802;45.654;13.804;2023-07-02T12:48:01;27.50;99.90
28608;DHT22;15802;45.654;13.804;2023-07-02T12:50:27;27.40;99.90
28608;DHT22;15802;45.654;13.804;2023-07-02T12:52:52;27.40;99.90
28608;DHT22;15802;45.654;13.804;2023-07-02T12:55:18;27.50;99.90
28608;DHT22;15802;45.654;13.804;2023-07-02T12:57:44;27.50;99.90
28608;DHT22;15802;45.654;13.804;2023-07-02T13:00:10;27.40;99.90
28608;DHT22;15802;45.654;13.804;2023-07-02T13:02:35;27.30;99.90
28608;DHT22;15802;45.654;13.804;2023-07-02T13:05:01;27.20;99.90
28608;DHT22;15802;45.654;13.804;2023-07-02T13:07:27;27.20;99.90
28608;DHT22;15802;45.654;13.804;2023-07-02T13:09:55;27.30;99.90
28608;DHT22;15802;45.654;13.804;2023-07-02T13:12:21;27.30;99.90
28608;DHT22;15802;45.654;13.804;2023-07-02T13:14:46;27.30;99.90
28608;DHT22;15802;45.654;13.804;2023-07-02T13:17:12;27.30;99.90
28608;DHT22;15802;45.654;13.804;2023-07-02T13:19:38;27.40;99.90
28608;DHT22;15802;45.654;13.804;2023-07-02T13:22:03;27.50;99.90
28608;DHT22;15802;45.654;13.804;2023-07-02T13:24:32;27.50;99.90
28608;DHT22;15802;45.654;13.804;2023-07-02T13:27:02;27.60;99.90
28608;DHT22;15802;45.654;13.804;2023-07-02T13:29:27;27.50;99.90
28608;DHT22;15802;45.654;13.804;2023-07-02T13:31:53;27.60;99.90
28608;DHT22;15802;45.654;13.804;2023-07-02T13:34:19;27.70;99.90
28608;DHT22;15802;45.654;13.804;2023-07-02T13:36:44;27.70;99.90
28608;DHT22;15802;45.654;13.804;2023-07-02T13:39:10;27.80;99.90
28608;DHT22;15802;45.654;13.804;2023-07-02T13:41:36;27.50;99.90
28608;DHT22;15802;45.654;13.804;2023-07-02T13:44:01;27.40;99.90
28608;DHT22;15802;45.654;13.804;2023-07-02T13:46:27;27.50;99.90
28608;DHT22;15802;45.654;13.804;2023-07-02T13:48:53;27.40;99.90
28608;DHT22;15802;45.654;13.804;2023-07-02T13:51:19;27.50;99.90
28608;DHT22;15802;45.654;13.804;2023-07-02T13:53:44;27.50;99.90
28608;DHT22;15802;45.654;13.804;2023-07-02T13:56:10;27.50;99.90
28608;DHT22;15802;45.654;13.804;2023-07-02T14:03:49;27.70;99.90
28608;DHT22;15802;45.654;13.804;2023-07-02T14:06:14;27.80;99.90
28608;DHT22;15802;45.654;13.804;2023-07-02T14:08:40;27.70;99.90
28608;DHT22;15802;45.654;13.804;2023-07-02T14:11:06;27.80;99.90
28608;DHT22;15802;45.654;13.804;2023-07-02T14:13:32;27.70;99.90
28608;DHT22;15802;45.654;13.804;2023-07-02T14:15:58;27.70;99.90
28608;DHT22;15802;45.654;13.804;2023-07-02T14:18:24;27.80;99.90
28608;DHT22;15802;45.654;13.804;2023-07-02T14:20:49;27.90;99.90
28608;DHT22;15802;45.654;13.804;2023-07-02T14:23:15;27.90;99.90
28608;DHT22;15802;45.654;13.804;2023-07-02T14:25:41;28.00;99.90
28608;DHT22;15802;45.654;13.804;2023-07-02T14:28:07;28.10;99.90
28608;DHT22;15802;45.654;13.804;2023-07-02T14:30:32;28.00;99.90
28608;DHT22;15802;45.654;13.804;2023-07-02T14:32:58;28.00;99.90
28608;DHT22;15802;45.654;13.804;2023-07-02T14:35:23;27.90;99.90
28608;DHT22;15802;45.654;13.804;2023-07-02T14:37:53;28.00;99.90
28608;DHT22;15802;45.654;13.804;2023-07-02T14:40:19;27.90;99.90
28608;DHT22;15802;45.654;13.804;2023-07-02T14:42:45;27.90;99.90
28608;DHT22;15802;45.654;13.804;2023-07-02T14:45:10;27.80;99.90
28608;DHT22;15802;45.654;13.804;2023-07-02T14:47:36;27.80;99.90
28608;DHT22;15802;45.654;13.804;2023-07-02T14:50:01;27.70;99.90
28608;DHT22;15802;45.654;13.804;2023-07-02T14:52:27;27.70;99.90
28608;DHT22;15802;45.654;13.804;2023-07-02T14:54:53;27.70;99.90
28608;DHT22;15802;45.654;13.804;2023-07-02T14:57:18;27.70;99.90
28608;DHT22;15802;45.654;13.804;2023-07-02T14:59:47;27.70;99.90
28608;DHT22;15802;45.654;13.804;2023-07-02T15:02:15;27.80;99.90
28608;DHT22;15802;45.654;13.804;2023-07-02T15:04:41;27.80;99.90
28608;DHT22;15802;45.654;13.804;2023-07-02T15:07:06;27.80;99.90
28608;DHT22;15802;45.654;13.804;2023-07-02T15:09:32;27.80;99.90
28608;DHT22;15802;45.654;13.804;2023-07-02T15:11:58;27.90;99.90
28608;DHT22;15802;45.654;13.804;2023-07-02T15:14:24;28.00;99.90
28608;DHT22;15802;45.654;13.804;2023-07-02T15:16:49;28.00;99.90